EST,Max TemperatureF,Mean TemperatureF,Min TemperatureF,Max Dew PointF,MeanDew PointF,Min DewpointF,Max Humidity, Mean Humidity, Min Humidity, Max Sea Level PressureIn, Mean Sea Level PressureIn, Min Sea Level PressureIn, Max VisibilityMiles, Mean VisibilityMiles, Min VisibilityMiles, Max Wind SpeedMPH, Mean Wind SpeedMPH, Max Gust SpeedMPH,PrecipitationIn, CloudCover, Events, WindDirDegrees
2012-12-1,77,72,67,68,65,61,100,82,64,30.17,30.13,30.09,10,10,10,16,11,24,0.00,2,,46
2012-12-2,79,73,67,66,66,64,93,78,62,30.21,30.15,30.12,10,10,10,15,9,23,0.00,2,,46
2012-12-3,80,76,71,66,64,58,84,71,58,30.21,30.16,30.13,10,10,10,17,9,22,0.01,2,Rain,58
2012-12-4,78,73,68,68,63,59,79,70,60,30.21,30.16,30.12,10,10,7,17,8,23,0.03,4,Rain,55
2012-12-5,76,72,68,68,66,64,90,80,69,30.13,30.07,30.01,10,9,5,12,7,16,0.49,8,Rain,44
2012-12-6,79,74,69,70,68,65,97,86,74,30.01,29.96,29.92,10,10,10,12,5,16,0.08,4,Rain,41
2012-12-7,80,75,69,72,69,67,97,86,74,29.98,29.94,29.90,10,10,10,9,5,12,0.00,0,,25
2012-12-8,82,77,72,72,71,69,93,84,74,30.04,29.98,29.94,10,10,5,12,5,15,0.05,3,Rain,63
2012-12-9,83,78,72,75,73,71,100,87,74,30.08,30.03,29.99,10,8,0,10,4,12,0.00,3,Fog,39
2012-12-10,82,79,76,76,75,73,94,90,85,30.01,29.97,29.90,10,10,7,15,9,26,0.00,1,,130
2012-12-11,82,80,77,76,75,74,91,85,79,30.05,29.99,29.94,10,10,8,12,6,18,0.00,0,,148
2012-12-12,82,79,76,75,74,71,91,83,74,30.09,30.05,30.02,10,10,10,21,9,24,0.00,0,,144
2012-12-13,80,76,72,74,70,66,94,87,79,30.12,30.09,30.04,10,10,9,18,7,24,0.00,6,,7
2012-12-14,74,71,68,68,66,64,93,83,73,30.13,30.08,30.04,10,10,9,17,11,23,0.00,6,,19
2012-12-15,77,74,70,69,67,65,90,82,73,30.10,30.05,30.02,10,10,10,13,8,18,0.00,0,,30
2012-12-16,80,77,73,68,67,65,84,73,62,30.03,29.99,29.94,10,10,10,14,8,21,0.00,1,,111
2012-12-17,81,77,73,71,69,66,87,78,69,29.99,29.96,29.92,10,10,10,14,7,17,0.00,1,,164
2012-12-18,82,78,73,73,71,68,87,77,67,30.04,29.99,29.94,10,10,10,12,5,13,0.00,3,,11
2012-12-19,79,75,71,71,70,68,93,82,71,30.09,30.05,30.02,10,10,10,13,6,16,0.00,1,,73
2012-12-20,80,78,76,70,67,65,76,67,58,30.08,30.04,29.99,10,10,10,17,10,22,0.00,1,,140
2012-12-21,77,71,64,70,59,50,87,73,59,30.20,30.10,30.01,10,10,9,29,16,39,0.00,3,,334
2012-12-22,65,62,59,48,44,41,63,55,46,30.29,30.23,30.19,10,10,10,21,12,28,0.00,0,,15
2012-12-23,71,64,57,58,52,40,78,63,47,30.23,30.18,30.12,10,10,10,13,6,17,0.00,0,,50
2012-12-24,77,70,63,63,60,57,87,76,64,30.12,30.06,30.01,10,10,10,12,5,14,T,2,,52
2012-12-25,78,73,67,69,64,61,97,79,60,30.03,29.97,29.92,10,10,10,18,10,23,0.00,1,,97
2012-12-26,79,75,71,73,71,65,94,87,79,30.02,29.95,29.89,10,10,8,22,11,29,0.00,5,,204
2012-12-27,71,68,64,64,58,53,84,73,61,30.09,30.04,29.99,10,10,10,16,8,21,0.00,3,,23
2012-12-28,81,74,67,73,67,57,87,78,68,30.05,30.01,29.95,10,10,10,14,5,20,0.00,3,,100
2012-12-29,79,75,70,73,71,62,94,87,79,30.14,30.03,29.94,10,10,7,21,10,29,0.01,4,Rain,228
2012-12-30,70,65,59,61,55,48,78,69,60,30.27,30.21,30.14,10,10,10,22,13,30,0.00,1,,21
2012-12-31,75,70,64,63,60,58,84,72,60,30.26,30.21,30.16,10,10,10,20,11,25,0.00,6,,79